sensor_id;sensor_type;location;lat;lon;timestamp;temperature;humidity
15705;DHT22;7952;48.396;12.806;2023-04-03T00:00:09;6.90;56.70
15705;DHT22;7952;48.396;12.806;2023-04-03T00:02:35;6.90;56.70
15705;DHT22;7952;48.396;12.806;2023-04-03T00:05:01;6.90;56.70
15705;DHT22;7952;48.396;12.806;2023-04-03T00:07:26;6.90;56.70
15705;DHT22;7952;48.396;12.806;2023-04-03T00:09:52;6.90;56.70
15705;DHT22;7952;48.396;12.806;2023-04-03T00:12:17;6.90;56.70
15705;DHT22;7952;48.396;12.806;2023-04-03T00:14:43;6.90;56.60
15705;DHT22;7952;48.396;12.806;2023-04-03T00:17:08;6.90;56.60
15705;DHT22;7952;48.396;12.806;2023-04-03T00:19:34;6.90;56.60
15705;DHT22;7952;48.396;12.806;2023-04-03T00:22:00;6.80;56.50
15705;DHT22;7952;48.396;12.806;2023-04-03T00:24:25;6.80;56.50
15705;DHT22;7952;48.396;12.806;2023-04-03T00:26:51;6.80;56.50
15705;DHT22;7952;48.396;12.806;2023-04-03T00:29:16;6.80;56.60
15705;DHT22;7952;48.396;12.806;2023-04-03T00:31:42;6.80;56.60
15705;DHT22;7952;48.396;12.806;2023-04-03T00:34:07;6.80;56.60
15705;DHT22;7952;48.396;12.806;2023-04-03T00:36:33;6.80;56.70
15705;DHT22;7952;48.396;12.806;2023-04-03T00:38:58;6.80;56.80
15705;DHT22;7952;48.396;12.806;2023-04-03T00:41:24;6.80;56.70
15705;DHT22;7952;48.396;12.806;2023-04-03T00:43:50;6.80;56.70
15705;DHT22;7952;48.396;12.806;2023-04-03T00:46:16;6.80;56.70
15705;DHT22;7952;48.396;12.806;2023-04-03T00:48:44;6.90;56.70
15705;DHT22;7952;48.396;12.806;2023-04-03T00:51:14;6.90;56.70
15705;DHT22;7952;48.396;12.806;2023-04-03T00:53:49;6.90;56.70
15705;DHT22;7952;48.396;12.806;2023-04-03T00:56:18;7.00;56.70
15705;DHT22;7952;48.396;12.806;2023-04-03T00:58:51;6.90;56.70
15705;DHT22;7952;48.396;12.806;2023-04-03T01:01:21;7.00;56.70
15705;DHT22;7952;48.396;12.806;2023-04-03T01:03:47;7.00;56.70
15705;DHT22;7952;48.396;12.806;2023-04-03T01:06:16;7.10;56.70
15705;DHT22;7952;48.396;12.806;2023-04-03T01:08:41;7.10;56.70
15705;DHT22;7952;48.396;12.806;2023-04-03T01:11:07;7.10;56.70
15705;DHT22;7952;48.396;12.806;2023-04-03T01:13:33;7.10;56.60
15705;DHT22;7952;48.396;12.806;2023-04-03T01:16:03;7.10;56.60
15705;DHT22;7952;48.396;12.806;2023-04-03T01:18:31;7.10;56.60
15705;DHT22;7952;48.396;12.806;2023-04-03T01:24:20;7.10;56.50
15705;DHT22;7952;48.396;12.806;2023-04-03T01:26:48;7.10;56.60
15705;DHT22;7952;48.396;12.806;2023-04-03T01:29:13;7.10;56.50
15705;DHT22;7952;48.396;12.806;2023-04-03T01:31:56;7.10;56.50
15705;DHT22;7952;48.396;12.806;2023-04-03T01:34:23;7.10;56.50
15705;DHT22;7952;48.396;12.806;2023-04-03T01:36:48;7.10;56.50
15705;DHT22;7952;48.396;12.806;2023-04-03T01:39:14;7.00;56.50
15705;DHT22;7952;48.396;12.806;2023-04-03T01:41:40;7.00;56.60
15705;DHT22;7952;48.396;12.806;2023-04-03T01:44:05;7.00;56.60
15705;DHT22;7952;48.396;12.806;2023-04-03T01:46:31;7.10;56.60
15705;DHT22;7952;48.396;12.806;2023-04-03T01:48:57;7.10;57.30
15705;DHT22;7952;48.396;12.806;2023-04-03T01:51:22;7.10;56.60
15705;DHT22;7952;48.396;12.806;2023-04-03T01:53:48;7.10;56.60
15705;DHT22;7952;48.396;12.806;2023-04-03T01:56:13;7.10;56.60
15705;DHT22;7952;48.396;12.806;2023-04-03T01:58:39;7.10;56.60
15705;DHT22;7952;48.396;12.806;2023-04-03T02:01:05;7.10;56.50
15705;DHT22;7952;48.396;12.806;2023-04-03T02:03:31;7.10;56.50
15705;DHT22;7952;48.396;12.806;2023-04-03T02:05:57;7.10;56.60
15705;DHT22;7952;48.396;12.806;2023-04-03T02:08:22;7.10;56.60
15705;DHT22;7952;48.396;12.806;2023-04-03T02:10:49;7.10;56.60
15705;DHT22;7952;48.396;12.806;2023-04-03T02:13:16;7.10;56.60
15705;DHT22;7952;48.396;12.806;2023-04-03T02:15:42;7.10;56.60
15705;DHT22;7952;48.396;12.806;2023-04-03T02:18:08;7.00;56.50
15705;DHT22;7952;48.396;12.806;2023-04-03T02:20:34;7.00;56.50
15705;DHT22;7952;48.396;12.806;2023-04-03T02:23:00;7.00;56.50
15705;DHT22;7952;48.396;12.806;2023-04-03T02:25:26;7.10;56.60
15705;DHT22;7952;48.396;12.806;2023-04-03T02:27:52;7.10;56.60
15705;DHT22;7952;48.396;12.806;2023-04-03T02:30:18;7.00;56.50
15705;DHT22;7952;48.396;12.806;2023-04-03T02:32:43;7.00;56.50
15705;DHT22;7952;48.396;12.806;2023-04-03T02:35:10;7.00;56.50
15705;DHT22;7952;48.396;12.806;2023-04-03T02:37:36;7.00;56.50
15705;DHT22;7952;48.396;12.806;2023-04-03T02:40:03;7.00;56.50
15705;DHT22;7952;48.396;12.806;2023-04-03T02:42:30;7.00;56.50
15705;DHT22;7952;48.396;12.806;2023-04-03T02:47:23;7.00;56.50
15705;DHT22;7952;48.396;12.806;2023-04-03T02:49:49;7.00;56.50
15705;DHT22;7952;48.396;12.806;2023-04-03T02:52:14;7.00;56.50
15705;DHT22;7952;48.396;12.806;2023-04-03T02:54:40;7.00;56.50
15705;DHT22;7952;48.396;12.806;2023-04-03T02:57:06;7.00;56.50
15705;DHT22;7952;48.396;12.806;2023-04-03T02:59:35;7.00;56.40
15705;DHT22;7952;48.396;12.806;2023-04-03T03:02:01;7.00;56.40
15705;DHT22;7952;48.396;12.806;2023-04-03T03:04:26;7.00;56.50
15705;DHT22;7952;48.396;12.806;2023-04-03T03:06:52;7.00;56.50
15705;DHT22;7952;48.396;12.806;2023-04-03T03:09:18;7.00;56.50
15705;DHT22;7952;48.396;12.806;2023-04-03T03:11:43;7.00;56.40
15705;DHT22;7952;48.396;12.806;2023-04-03T03:14:09;7.00;56.40
15705;DHT22;7952;48.396;12.806;2023-04-03T03:16:34;7.00;56.50
15705;DHT22;7952;48.396;12.806;2023-04-03T03:19:00;7.00;56.50
15705;DHT22;7952;48.396;12.806;2023-04-03T03:21:26;7.00;56.50
15705;DHT22;7952;48.396;12.806;2023-04-03T03:23:51;6.90;56.40
15705;DHT22;7952;48.396;12.806;2023-04-03T03:26:17;7.00;56.50
15705;DHT22;7952;48.396;12.806;2023-04-03T03:28:42;7.00;56.40
15705;DHT22;7952;48.396;12.806;2023-04-03T03:31:08;7.00;56.40
15705;DHT22;7952;48.396;12.806;2023-04-03T03:33:34;6.90;56.40
15705;DHT22;7952;48.396;12.806;2023-04-03T03:36:00;6.90;56.40
15705;DHT22;7952;48.396;12.806;2023-04-03T03:38:26;6.90;56.40
15705;DHT22;7952;48.396;12.806;2023-04-03T03:40:52;6.90;56.30
15705;DHT22;7952;48.396;12.806;2023-04-03T03:43:18;6.90;56.40
15705;DHT22;7952;48.396;12.806;2023-04-03T03:45:44;6.90;56.40
15705;DHT22;7952;48.396;12.806;2023-04-03T03:48:10;6.80;56.30
15705;DHT22;7952;48.396;12.806;2023-04-03T03:50:36;6.80;56.40
15705;DHT22;7952;48.396;12.806;2023-04-03T03:53:02;6.80;56.40
15705;DHT22;7952;48.396;12.806;2023-04-03T03:55:28;6.80;56.40
15705;DHT22;7952;48.396;12.806;2023-04-03T03:57:53;6.80;56.40
15705;DHT22;7952;48.396;12.806;2023-04-03T04:00:19;6.80;56.40
15705;DHT22;7952;48.396;12.806;2023-04-03T04:02:45;6.80;56.40
15705;DHT22;7952;48.396;12.806;2023-04-03T04:05:11;6.80;56.40
15705;DHT22;7952;48.396;12.806;2023-04-03T04:07:36;6.80;56.40
15705;DHT22;7952;48.396;12.806;2023-04-03T04:10:02;6.70;56.30
15705;DHT22;7952;48.396;12.806;2023-04-03T04:12:28;6.70;56.40
15705;DHT22;7952;48.396;12.806;2023-04-03T04:14:53;6.70;56.40
15705;DHT22;7952;48.396;12.806;2023-04-03T04:17:19;6.70;56.30
15705;DHT22;7952;48.396;12.806;2023-04-03T04:19:45;6.70;56.30
15705;DHT22;7952;48.396;12.806;2023-04-03T04:22:10;6.70;56.30
15705;DHT22;7952;48.396;12.806;2023-04-03T04:24:36;6.70;56.40
15705;DHT22;7952;48.396;12.806;2023-04-03T04:27:02;6.70;56.40
15705;DHT22;7952;48.396;12.806;2023-04-03T04:29:27;6.70;56.40
15705;DHT22;7952;48.396;12.806;2023-04-03T04:31:53;6.70;56.40
15705;DHT22;7952;48.396;12.806;2023-04-03T04:34:19;6.80;56.40
15705;DHT22;7952;48.396;12.806;2023-04-03T04:36:44;6.80;56.40
15705;DHT22;7952;48.396;12.806;2023-04-03T04:39:10;6.80;56.50
15705;DHT22;7952;48.396;12.806;2023-04-03T04:41:35;6.80;56.40
15705;DHT22;7952;48.396;12.806;2023-04-03T04:44:01;6.80;56.40
15705;DHT22;7952;48.396;12.806;2023-04-03T04:46:26;6.80;56.40
15705;DHT22;7952;48.396;12.806;2023-04-03T04:48:52;6.80;56.40
15705;DHT22;7952;48.396;12.806;2023-04-03T04:51:17;6.80;56.40
15705;DHT22;7952;48.396;12.806;2023-04-03T04:53:43;6.80;56.30
15705;DHT22;7952;48.396;12.806;2023-04-03T04:56:09;6.80;56.30
15705;DHT22;7952;48.396;12.806;2023-04-03T04:58:35;6.80;56.30
15705;DHT22;7952;48.396;12.806;2023-04-03T05:01:03;6.80;56.30
15705;DHT22;7952;48.396;12.806;2023-04-03T05:03:29;6.80;56.40
15705;DHT22;7952;48.396;12.806;2023-04-03T05:05:54;6.80;56.30
15705;DHT22;7952;48.396;12.806;2023-04-03T05:08:20;6.80;56.40
15705;DHT22;7952;48.396;12.806;2023-04-03T05:10:46;6.80;56.40
15705;DHT22;7952;48.396;12.806;2023-04-03T05:13:12;6.80;56.40
15705;DHT22;7952;48.396;12.806;2023-04-03T05:15:37;6.90;56.40
15705;DHT22;7952;48.396;12.806;2023-04-03T05:18:03;6.80;56.40
15705;DHT22;7952;48.396;12.806;2023-04-03T05:20:29;6.90;56.40
15705;DHT22;7952;48.396;12.806;2023-04-03T05:22:54;6.90;56.40
15705;DHT22;7952;48.396;12.806;2023-04-03T05:25:20;6.90;56.40
15705;DHT22;7952;48.396;12.806;2023-04-03T05:27:45;6.90;56.40
15705;DHT22;7952;48.396;12.806;2023-04-03T05:30:11;6.90;56.30
15705;DHT22;7952;48.396;12.806;2023-04-03T05:32:37;6.90;56.30
15705;DHT22;7952;48.396;12.806;2023-04-03T05:35:03;6.90;56.30
15705;DHT22;7952;48.396;12.806;2023-04-03T05:37:28;7.00;56.40
15705;DHT22;7952;48.396;12.806;2023-04-03T05:39:54;7.00;56.40
15705;DHT22;7952;48.396;12.806;2023-04-03T05:42:19;7.00;56.30
15705;DHT22;7952;48.396;12.806;2023-04-03T05:44:45;7.00;56.30
15705;DHT22;7952;48.396;12.806;2023-04-03T05:47:12;7.10;56.40
15705;DHT22;7952;48.396;12.806;2023-04-03T05:49:38;7.10;56.40
15705;DHT22;7952;48.396;12.806;2023-04-03T05:54:50;7.10;56.30
15705;DHT22;7952;48.396;12.806;2023-04-03T05:57:16;7.10;56.30
15705;DHT22;7952;48.396;12.806;2023-04-03T05:59:42;7.10;56.30
15705;DHT22;7952;48.396;12.806;2023-04-03T06:02:11;7.10;56.30
15705;DHT22;7952;48.396;12.806;2023-04-03T06:04:37;7.10;56.30
15705;DHT22;7952;48.396;12.806;2023-04-03T06:07:03;7.10;56.30
15705;DHT22;7952;48.396;12.806;2023-04-03T06:09:29;7.10;56.30
15705;DHT22;7952;48.396;12.806;2023-04-03T06:11:55;7.20;56.30
15705;DHT22;7952;48.396;12.806;2023-04-03T06:14:24;7.20;56.30
15705;DHT22;7952;48.396;12.806;2023-04-03T06:16:50;7.20;56.30
15705;DHT22;7952;48.396;12.806;2023-04-03T06:19:15;7.20;56.20
15705;DHT22;7952;48.396;12.806;2023-04-03T06:21:41;7.20;56.20
15705;DHT22;7952;48.396;12.806;2023-04-03T06:24:07;7.30;56.30
15705;DHT22;7952;48.396;12.806;2023-04-03T06:26:33;7.30;56.30
15705;DHT22;7952;48.396;12.806;2023-04-03T06:28:59;7.30;56.20
15705;DHT22;7952;48.396;12.806;2023-04-03T06:31:25;7.40;56.20
15705;DHT22;7952;48.396;12.806;2023-04-03T06:33:51;7.40;56.20
15705;DHT22;7952;48.396;12.806;2023-04-03T06:36:19;7.40;56.20
15705;DHT22;7952;48.396;12.806;2023-04-03T06:38:46;7.40;56.10
15705;DHT22;7952;48.396;12.806;2023-04-03T06:41:12;7.40;56.20
15705;DHT22;7952;48.396;12.806;2023-04-03T06:43:37;7.50;56.20
15705;DHT22;7952;48.396;12.806;2023-04-03T06:46:03;7.40;56.10
15705;DHT22;7952;48.396;12.806;2023-04-03T06:48:29;7.50;56.10
15705;DHT22;7952;48.396;12.806;2023-04-03T06:50:55;7.50;56.10
15705;DHT22;7952;48.396;12.806;2023-04-03T06:53:21;7.50;56.10
15705;DHT22;7952;48.396;12.806;2023-04-03T06:55:47;7.50;56.10
15705;DHT22;7952;48.396;12.806;2023-04-03T06:58:12;7.50;56.10
15705;DHT22;7952;48.396;12.806;2023-04-03T07:00:39;7.50;56.20
15705;DHT22;7952;48.396;12.806;2023-04-03T07:03:04;7.50;56.20
15705;DHT22;7952;48.396;12.806;2023-04-03T07:05:30;7.60;56.30
15705;DHT22;7952;48.396;12.806;2023-04-03T07:07:56;7.60;56.20
15705;DHT22;7952;48.396;12.806;2023-04-03T07:10:22;7.70;56.20
15705;DHT22;7952;48.396;12.806;2023-04-03T07:12:47;7.80;56.30
15705;DHT22;7952;48.396;12.806;2023-04-03T07:15:13;7.80;56.20
15705;DHT22;7952;48.396;12.806;2023-04-03T07:17:39;7.80;56.10
15705;DHT22;7952;48.396;12.806;2023-04-03T07:20:06;7.90;56.10
15705;DHT22;7952;48.396;12.806;2023-04-03T07:22:32;7.90;56.10
15705;DHT22;7952;48.396;12.806;2023-04-03T07:24:58;8.00;56.10
15705;DHT22;7952;48.396;12.806;2023-04-03T07:27:25;8.10;56.10
15705;DHT22;7952;48.396;12.806;2023-04-03T07:29:50;8.10;56.10
15705;DHT22;7952;48.396;12.806;2023-04-03T07:32:16;8.10;56.10
15705;DHT22;7952;48.396;12.806;2023-04-03T07:34:43;8.20;56.00
15705;DHT22;7952;48.396;12.806;2023-04-03T07:37:08;8.20;55.90
15705;DHT22;7952;48.396;12.806;2023-04-03T07:39:34;8.20;56.40
15705;DHT22;7952;48.396;12.806;2023-04-03T07:42:00;8.30;55.90
15705;DHT22;7952;48.396;12.806;2023-04-03T07:44:25;8.30;55.90
15705;DHT22;7952;48.396;12.806;2023-04-03T07:46:51;8.30;55.80
15705;DHT22;7952;48.396;12.806;2023-04-03T07:49:17;8.30;55.80
15705;DHT22;7952;48.396;12.806;2023-04-03T07:51:44;8.30;55.80
15705;DHT22;7952;48.396;12.806;2023-04-03T07:54:10;8.40;56.00
15705;DHT22;7952;48.396;12.806;2023-04-03T07:56:36;8.50;56.00
15705;DHT22;7952;48.396;12.806;2023-04-03T07:59:02;8.50;55.70
15705;DHT22;7952;48.396;12.806;2023-04-03T08:01:28;8.60;55.70
15705;DHT22;7952;48.396;12.806;2023-04-03T08:03:54;8.60;55.70
15705;DHT22;7952;48.396;12.806;2023-04-03T08:06:20;8.60;55.70
15705;DHT22;7952;48.396;12.806;2023-04-03T08:08:46;8.60;55.60
15705;DHT22;7952;48.396;12.806;2023-04-03T08:11:13;8.70;55.70
15705;DHT22;7952;48.396;12.806;2023-04-03T08:13:38;8.70;55.80
15705;DHT22;7952;48.396;12.806;2023-04-03T08:16:11;8.80;55.60
15705;DHT22;7952;48.396;12.806;2023-04-03T08:18:38;8.80;55.20
15705;DHT22;7952;48.396;12.806;2023-04-03T08:21:10;8.70;55.00
15705;DHT22;7952;48.396;12.806;2023-04-03T08:23:36;8.70;55.20
15705;DHT22;7952;48.396;12.806;2023-04-03T08:26:21;8.70;55.30
15705;DHT22;7952;48.396;12.806;2023-04-03T08:28:47;8.70;55.10
15705;DHT22;7952;48.396;12.806;2023-04-03T08:31:16;8.60;55.00
15705;DHT22;7952;48.396;12.806;2023-04-03T08:33:43;8.60;54.90
15705;DHT22;7952;48.396;12.806;2023-04-03T08:36:20;8.60;54.50
15705;DHT22;7952;48.396;12.806;2023-04-03T08:38:46;8.50;53.90
15705;DHT22;7952;48.396;12.806;2023-04-03T08:41:27;8.40;53.60
15705;DHT22;7952;48.396;12.806;2023-04-03T08:49:25;8.20;53.30
15705;DHT22;7952;48.396;12.806;2023-04-03T08:51:52;8.20;53.30
15705;DHT22;7952;48.396;12.806;2023-04-03T08:54:31;8.10;53.00
15705;DHT22;7952;48.396;12.806;2023-04-03T08:57:00;8.00;53.70
15705;DHT22;7952;48.396;12.806;2023-04-03T08:59:31;8.00;53.50
15705;DHT22;7952;48.396;12.806;2023-04-03T09:02:00;8.00;53.70
15705;DHT22;7952;48.396;12.806;2023-04-03T09:04:28;8.00;53.50
15705;DHT22;7952;48.396;12.806;2023-04-03T09:06:57;8.00;53.50
15705;DHT22;7952;48.396;12.806;2023-04-03T09:09:36;8.00;53.70
15705;DHT22;7952;48.396;12.806;2023-04-03T09:17:43;8.10;54.10
15705;DHT22;7952;48.396;12.806;2023-04-03T09:22:45;8.20;53.70
15705;DHT22;7952;48.396;12.806;2023-04-03T09:25:20;8.20;53.50
15705;DHT22;7952;48.396;12.806;2023-04-03T09:27:47;8.20;53.50
15705;DHT22;7952;48.396;12.806;2023-04-03T09:30:14;8.20;53.50
15705;DHT22;7952;48.396;12.806;2023-04-03T09:32:40;8.20;53.50
15705;DHT22;7952;48.396;12.806;2023-04-03T09:35:28;8.20;53.50
15705;DHT22;7952;48.396;12.806;2023-04-03T09:40:37;8.40;53.80
15705;DHT22;7952;48.396;12.806;2023-04-03T09:45:49;8.50;53.40
15705;DHT22;7952;48.396;12.806;2023-04-03T09:48:16;8.50;53.10
15705;DHT22;7952;48.396;12.806;2023-04-03T09:51:00;8.50;53.10
15705;DHT22;7952;48.396;12.806;2023-04-03T09:53:41;8.60;53.40
15705;DHT22;7952;48.396;12.806;2023-04-03T09:58:44;8.60;53.40
15705;DHT22;7952;48.396;12.806;2023-04-03T10:01:41;8.60;53.30
15705;DHT22;7952;48.396;12.806;2023-04-03T10:06:39;8.60;53.10
15705;DHT22;7952;48.396;12.806;2023-04-03T10:09:18;8.50;53.10
15705;DHT22;7952;48.396;12.806;2023-04-03T10:12:08;8.40;53.00
15705;DHT22;7952;48.396;12.806;2023-04-03T10:14:58;8.30;53.00
15705;DHT22;7952;48.396;12.806;2023-04-03T10:19:57;8.20;53.30
15705;DHT22;7952;48.396;12.806;2023-04-03T10:22:56;8.20;53.40
15705;DHT22;7952;48.396;12.806;2023-04-03T10:25:51;8.20;53.50
15705;DHT22;7952;48.396;12.806;2023-04-03T10:28:33;8.20;53.70
15705;DHT22;7952;48.396;12.806;2023-04-03T10:31:15;8.30;53.70
15705;DHT22;7952;48.396;12.806;2023-04-03T10:33:52;8.40;53.70
15705;DHT22;7952;48.396;12.806;2023-04-03T10:36:25;8.50;53.40
15705;DHT22;7952;48.396;12.806;2023-04-03T10:39:02;8.50;53.40
15705;DHT22;7952;48.396;12.806;2023-04-03T10:41:33;8.50;53.40
15705;DHT22;7952;48.396;12.806;2023-04-03T10:47:02;8.70;53.50
15705;DHT22;7952;48.396;12.806;2023-04-03T10:49:50;8.80;53.50
15705;DHT22;7952;48.396;12.806;2023-04-03T10:52:23;8.90;53.40
15705;DHT22;7952;48.396;12.806;2023-04-03T10:57:31;9.10;53.00
15705;DHT22;7952;48.396;12.806;2023-04-03T11:00:04;9.10;52.90
15705;DHT22;7952;48.396;12.806;2023-04-03T11:02:39;9.20;52.70
15705;DHT22;7952;48.396;12.806;2023-04-03T11:05:17;9.20;52.20
15705;DHT22;7952;48.396;12.806;2023-04-03T11:07:48;9.30;52.00
15705;DHT22;7952;48.396;12.806;2023-04-03T11:10:40;9.40;51.70
15705;DHT22;7952;48.396;12.806;2023-04-03T11:13:24;9.50;51.90
15705;DHT22;7952;48.396;12.806;2023-04-03T11:15:53;9.60;52.20
15705;DHT22;7952;48.396;12.806;2023-04-03T11:18:27;9.80;52.10
15705;DHT22;7952;48.396;12.806;2023-04-03T11:21:00;10.00;51.20
15705;DHT22;7952;48.396;12.806;2023-04-03T11:23:32;10.20;50.80
15705;DHT22;7952;48.396;12.806;2023-04-03T11:26:11;10.30;51.20
15705;DHT22;7952;48.396;12.806;2023-04-03T11:28:38;10.50;50.80
15705;DHT22;7952;48.396;12.806;2023-04-03T11:31:35;10.60;50.20
15705;DHT22;7952;48.396;12.806;2023-04-03T11:37:00;10.70;50.50
15705;DHT22;7952;48.396;12.806;2023-04-03T11:39:33;10.80;50.60
15705;DHT22;7952;48.396;12.806;2023-04-03T11:42:19;10.90;50.60
15705;DHT22;7952;48.396;12.806;2023-04-03T11:53:31;11.00;50.40
15705;DHT22;7952;48.396;12.806;2023-04-03T11:58:28;11.00;50.30
15705;DHT22;7952;48.396;12.806;2023-04-03T12:01:09;11.00;50.40
15705;DHT22;7952;48.396;12.806;2023-04-03T12:03:57;11.00;50.40
15705;DHT22;7952;48.396;12.806;2023-04-03T12:08:57;10.90;50.30
15705;DHT22;7952;48.396;12.806;2023-04-03T12:11:30;10.90;50.50
15705;DHT22;7952;48.396;12.806;2023-04-03T12:31:14;11.50;50.80
15705;DHT22;7952;48.396;12.806;2023-04-03T12:50:41;11.40;49.80
15705;DHT22;7952;48.396;12.806;2023-04-03T12:53:42;11.30;49.90
15705;DHT22;7952;48.396;12.806;2023-04-03T12:56:31;11.20;50.10
15705;DHT22;7952;48.396;12.806;2023-04-03T12:59:27;11.20;50.10
15705;DHT22;7952;48.396;12.806;2023-04-03T13:04:42;11.10;50.30
15705;DHT22;7952;48.396;12.806;2023-04-03T13:07:22;11.10;50.40
15705;DHT22;7952;48.396;12.806;2023-04-03T13:13:07;11.30;50.50
15705;DHT22;7952;48.396;12.806;2023-04-03T13:15:43;11.50;50.40
15705;DHT22;7952;48.396;12.806;2023-04-03T13:18:37;11.60;49.90
15705;DHT22;7952;48.396;12.806;2023-04-03T13:21:06;11.60;48.80
15705;DHT22;7952;48.396;12.806;2023-04-03T13:23:40;11.50;48.30
15705;DHT22;7952;48.396;12.806;2023-04-03T13:26:11;11.30;48.30
15705;DHT22;7952;48.396;12.806;2023-04-03T13:28:44;11.20;48.40
15705;DHT22;7952;48.396;12.806;2023-04-03T13:31:52;11.00;48.30
15705;DHT22;7952;48.396;12.806;2023-04-03T13:34:19;10.90;48.30
15705;DHT22;7952;48.396;12.806;2023-04-03T13:41:49;10.70;48.40
15705;DHT22;7952;48.396;12.806;2023-04-03T13:46:41;10.50;47.70
15705;DHT22;7952;48.396;12.806;2023-04-03T13:49:36;10.40;47.50
15705;DHT22;7952;48.396;12.806;2023-04-03T13:52:30;10.30;47.90
15705;DHT22;7952;48.396;12.806;2023-04-03T13:55:18;10.30;48.40
15705;DHT22;7952;48.396;12.806;2023-04-03T13:57:56;10.20;48.50
15705;DHT22;7952;48.396;12.806;2023-04-03T14:00:30;10.30;48.50
15705;DHT22;7952;48.396;12.806;2023-04-03T14:02:56;10.30;48.50
15705;DHT22;7952;48.396;12.806;2023-04-03T14:05:23;10.30;48.50
15705;DHT22;7952;48.396;12.806;2023-04-03T14:07:50;10.30;48.40
15705;DHT22;7952;48.396;12.806;2023-04-03T14:10:16;10.30;47.90
15705;DHT22;7952;48.396;12.806;2023-04-03T14:12:41;10.20;47.40
15705;DHT22;7952;48.396;12.806;2023-04-03T14:17:41;10.10;46.90
15705;DHT22;7952;48.396;12.806;2023-04-03T14:20:18;10.00;46.60
15705;DHT22;7952;48.396;12.806;2023-04-03T14:22:44;9.90;47.80
15705;DHT22;7952;48.396;12.806;2023-04-03T14:25:10;9.90;48.00
15705;DHT22;7952;48.396;12.806;2023-04-03T14:27:38;9.80;48.00
15705;DHT22;7952;48.396;12.806;2023-04-03T14:30:07;9.70;47.90
15705;DHT22;7952;48.396;12.806;2023-04-03T14:32:33;9.60;48.20
15705;DHT22;7952;48.396;12.806;2023-04-03T14:35:00;9.60;48.30
15705;DHT22;7952;48.396;12.806;2023-04-03T14:37:28;9.70;48.60
15705;DHT22;7952;48.396;12.806;2023-04-03T14:39:54;9.70;48.70
15705;DHT22;7952;48.396;12.806;2023-04-03T14:42:24;9.80;48.20
15705;DHT22;7952;48.396;12.806;2023-04-03T14:44:49;9.80;48.10
15705;DHT22;7952;48.396;12.806;2023-04-03T14:47:23;9.80;48.20
15705;DHT22;7952;48.396;12.806;2023-04-03T14:49:49;9.70;48.30
15705;DHT22;7952;48.396;12.806;2023-04-03T14:52:35;9.80;48.50
15705;DHT22;7952;48.396;12.806;2023-04-03T14:55:03;9.80;48.40
15705;DHT22;7952;48.396;12.806;2023-04-03T14:57:30;9.80;48.20
15705;DHT22;7952;48.396;12.806;2023-04-03T14:59:56;9.70;48.20
15705;DHT22;7952;48.396;12.806;2023-04-03T15:02:26;9.70;48.20
15705;DHT22;7952;48.396;12.806;2023-04-03T15:04:53;9.60;48.20
15705;DHT22;7952;48.396;12.806;2023-04-03T15:07:19;9.60;48.20
15705;DHT22;7952;48.396;12.806;2023-04-03T15:09:44;9.60;48.20
15705;DHT22;7952;48.396;12.806;2023-04-03T15:12:10;9.50;47.80
15705;DHT22;7952;48.396;12.806;2023-04-03T15:14:36;9.50;47.10
15705;DHT22;7952;48.396;12.806;2023-04-03T15:17:02;9.30;46.60
15705;DHT22;7952;48.396;12.806;2023-04-03T15:19:29;9.20;46.70
15705;DHT22;7952;48.396;12.806;2023-04-03T15:21:55;9.10;46.80
15705;DHT22;7952;48.396;12.806;2023-04-03T15:24:21;9.10;46.80
15705;DHT22;7952;48.396;12.806;2023-04-03T15:26:46;9.00;46.10
15705;DHT22;7952;48.396;12.806;2023-04-03T15:29:12;8.90;46.10
15705;DHT22;7952;48.396;12.806;2023-04-03T15:31:37;8.80;45.90
15705;DHT22;7952;48.396;12.806;2023-04-03T15:34:03;8.70;45.70
15705;DHT22;7952;48.396;12.806;2023-04-03T15:36:28;8.60;46.10
15705;DHT22;7952;48.396;12.806;2023-04-03T15:38:54;8.60;45.30
15705;DHT22;7952;48.396;12.806;2023-04-03T15:41:20;8.50;45.40
15705;DHT22;7952;48.396;12.806;2023-04-03T15:43:46;8.50;45.50
15705;DHT22;7952;48.396;12.806;2023-04-03T15:46:12;8.50;45.70
15705;DHT22;7952;48.396;12.806;2023-04-03T15:48:38;8.40;45.90
15705;DHT22;7952;48.396;12.806;2023-04-03T15:51:05;8.40;45.50
15705;DHT22;7952;48.396;12.806;2023-04-03T15:53:31;8.30;45.20
15705;DHT22;7952;48.396;12.806;2023-04-03T15:55:56;8.20;45.20
15705;DHT22;7952;48.396;12.806;2023-04-03T15:58:22;8.20;45.50
15705;DHT22;7952;48.396;12.806;2023-04-03T16:00:48;8.10;45.70
15705;DHT22;7952;48.396;12.806;2023-04-03T16:03:18;8.10;45.60
15705;DHT22;7952;48.396;12.806;2023-04-03T16:05:45;8.00;45.50
15705;DHT22;7952;48.396;12.806;2023-04-03T16:08:11;7.90;45.50
15705;DHT22;7952;48.396;12.806;2023-04-03T16:10:38;7.90;45.60
15705;DHT22;7952;48.396;12.806;2023-04-03T16:13:04;7.80;45.30
15705;DHT22;7952;48.396;12.806;2023-04-03T16:15:30;7.80;45.20
15705;DHT22;7952;48.396;12.806;2023-04-03T16:17:58;7.80;45.10
15705;DHT22;7952;48.396;12.806;2023-04-03T16:20:24;7.70;44.90
15705;DHT22;7952;48.396;12.806;2023-04-03T16:22:50;7.70;44.90
15705;DHT22;7952;48.396;12.806;2023-04-03T16:25:16;7.60;44.70
15705;DHT22;7952;48.396;12.806;2023-04-03T16:27:42;7.60;44.50
15705;DHT22;7952;48.396;12.806;2023-04-03T16:30:09;7.60;44.30
15705;DHT22;7952;48.396;12.806;2023-04-03T16:32:36;7.50;44.20
15705;DHT22;7952;48.396;12.806;2023-04-03T16:35:02;7.50;44.20
15705;DHT22;7952;48.396;12.806;2023-04-03T16:37:28;7.40;44.10
15705;DHT22;7952;48.396;12.806;2023-04-03T16:39:53;7.40;44.00
15705;DHT22;7952;48.396;12.806;2023-04-03T16:42:19;7.30;43.90
15705;DHT22;7952;48.396;12.806;2023-04-03T16:44:45;7.20;43.80
15705;DHT22;7952;48.396;12.806;2023-04-03T16:47:10;7.20;44.00
15705;DHT22;7952;48.396;12.806;2023-04-03T16:49:38;7.10;44.00
15705;DHT22;7952;48.396;12.806;2023-04-03T16:52:04;7.00;43.90
15705;DHT22;7952;48.396;12.806;2023-04-03T16:54:30;7.00;43.90
15705;DHT22;7952;48.396;12.806;2023-04-03T16:56:56;6.90;43.90
15705;DHT22;7952;48.396;12.806;2023-04-03T16:59:22;6.90;43.90
15705;DHT22;7952;48.396;12.806;2023-04-03T17:01:48;6.80;43.90
15705;DHT22;7952;48.396;12.806;2023-04-03T17:04:13;6.80;44.10
15705;DHT22;7952;48.396;12.806;2023-04-03T17:06:39;6.70;43.90
15705;DHT22;7952;48.396;12.806;2023-04-03T17:09:05;6.70;43.70
15705;DHT22;7952;48.396;12.806;2023-04-03T17:11:31;6.70;43.50
15705;DHT22;7952;48.396;12.806;2023-04-03T17:13:58;6.60;43.60
15705;DHT22;7952;48.396;12.806;2023-04-03T17:16:24;6.60;43.50
15705;DHT22;7952;48.396;12.806;2023-04-03T17:18:50;6.60;43.50
15705;DHT22;7952;48.396;12.806;2023-04-03T17:21:17;6.50;43.40
15705;DHT22;7952;48.396;12.806;2023-04-03T17:23:45;6.40;43.50
15705;DHT22;7952;48.396;12.806;2023-04-03T17:26:12;6.40;43.50
15705;DHT22;7952;48.396;12.806;2023-04-03T17:28:37;6.40;43.40
15705;DHT22;7952;48.396;12.806;2023-04-03T17:31:05;6.40;43.30
15705;DHT22;7952;48.396;12.806;2023-04-03T17:33:31;6.30;43.30
15705;DHT22;7952;48.396;12.806;2023-04-03T17:35:58;6.30;43.30
15705;DHT22;7952;48.396;12.806;2023-04-03T17:38:23;6.20;43.20
15705;DHT22;7952;48.396;12.806;2023-04-03T17:40:49;6.20;43.30